Sewickley, PA (15143)

5:34 AM EST on February 08, 2016 (GMT -0500)
Franklin Park | | Change Station
CLOSE
Current Station
Personal Weather Station
Location: Pittsburgh, PA
Elevation: 1154 ft
Nearby Weather Stations
Active Advisory: Winter Weather Advisory

Elev 1154 ft 40.59 °N, 80.08 °W | Updated 4 minutes ago

Partly Cloudy
Partly Cloudy
25.3 °F
Feels Like 25 °F
N
0.0
Wind Variable Wind from SE
Gusts 0.0 mph

Today
High -- | Low -- °F
--% Chance of Precip.
Yesterday
High -- | Low -- °F
Precip. -- in
Pressure 29.73 in
Visibility 10.0 miles
Clouds Scattered Clouds 15000 ft
Mostly Cloudy 18000 ft
Windchill 25 °F
Dew Point 22 °F
Humidity 86%
Rainfall 0.00 in
Snow Depth Not available.
7:23 AM 5:46 PM
Waning Crescent, 0% visible
METAR KPIT 080951Z 13005KT 10SM SCT150 BKN180 00/M06 A2968 RMK AO2 SLP066 T00001056
Pressure 29.73 in
Visibility 10.0 miles
Clouds Scattered Clouds 15000 ft
Mostly Cloudy 18000 ft
Windchill 25 °F
Dew Point 22 °F
Humidity 86%
Rainfall 0.00 in
Snow Depth Not available.
7:23 AM 5:46 PM
Waning Crescent, 0% visible
METAR KPIT 080951Z 13005KT 10SM SCT150 BKN180 00/M06 A2968 RMK AO2 SLP066 T00001056

10-Day Weather Forecast

Almanac

Astronomy

Feb. 08, 2016 Rise Set
Actual Time
Civil Twilight
Nautical Twilight
Astronomical Twilight
Moon
Length of Visible Light
Length of Day
Tomorrow will be .
, % of the Moon is Illuminated

Today's Extremes

State Highs State Lows

Community

WunderPhotos

Upload Photos

1,891,420 photos uploaded!

WunderBlog® & News

Nearby

Air Quality

  Air Quality AQ Index Pollutant
Not available.

Snow Depth

Station Depth Elevation

Earthquake Activity

City Distance Mag. Time & Date
Minimum magnitude displayed is 2.5.

Coastal Water Temperatures

Place Temperature

Stations

Nearby Weather Stations

Station Location Temp. Windchill Dew Point Humidity Wind Precip. Elev Updated Type
                   

Watches & Warnings

Winter Weather Advisory
Issued: 4:13 AM EST Feb. 8, 2016 – National Weather Service

... Winter Weather Advisory in effect from 7 PM this evening to
7 am EST Wednesday...

The National Weather Service in Pittsburgh has issued a Winter
Weather Advisory for snow... which is in effect from 7 PM this
evening to 7 am EST Wednesday.

* Snow accumulation... 1 to 3 inches through early Tuesday... with
an additional 1 to 3 inches through early Wednesday.

* Snow beginning... Monday evening.

* Period of most intense snow... early Tuesday morning.

* Snow ending... snow will gradually taper down through late
Tuesday.

* Impacts... hazardous travel conditions are expected due to snow.

Precautionary/preparedness actions...

A Winter Weather Advisory for snow means that periods of snow
will cause primarily travel difficulties. Be prepared for snow
covered roads and limited visibilities... and use caution while
driving.